Time;durP1;ratioP1;P1;durP2;ratioP2;P2;SDS_P1;SDS_P2;PMS_P1;PMS_P2;Temp;Humidity;BMP_temperature;BMP_pressure;BME280_temperature;BME280_humidity;BME280_pressure;Samples;Min_cycle;Max_cycle;Signal;HPM_P1;HPM_P2
2022/09/17 00:04:03;;;;;;;5.93;2.30;;;;;;;10.03;85.19;99124.67;3615606;80;98303;-84
2022/09/17 00:09:07;;;;;;;8.23;2.35;;;;;;;10.00;85.48;99119.39;3620389;80;33251;-83
2022/09/17 00:14:15;;;;;;;8.00;2.33;;;;;;;9.98;85.91;99112.73;3601640;80;98418;-85
2022/09/17 00:19:21;;;;;;;8.07;2.47;;;;;;;9.96;85.97;99118.63;3535049;82;25943;-84
2022/09/17 00:24:22;;;;;;;6.45;2.17;;;;;;;9.95;86.22;99112.16;3619175;80;98401;-84
2022/09/17 00:29:23;;;;;;;5.57;2.40;;;;;;;9.94;86.41;99110.02;3625275;80;33773;-86
2022/09/17 00:34:24;;;;;;;6.23;1.87;;;;;;;9.97;86.54;99117.44;3619403;80;98022;-85
2022/09/17 00:39:25;;;;;;;6.30;1.80;;;;;;;10.02;86.65;99118.38;3625396;80;33966;-84
2022/09/17 00:44:52;;;;;;;3.10;1.43;;;;;;;10.06;86.46;99124.67;3619002;80;98112;-83
2022/09/17 00:50:04;;;;;;;8.43;2.00;;;;;;;10.10;86.49;99122.68;3624965;80;26611;-84
2022/09/17 00:55:25;;;;;;;5.20;2.07;;;;;;;10.16;86.50;99127.14;3620456;79;98207;-83
2022/09/17 01:00:29;;;;;;;7.47;1.85;;;;;;;10.21;86.56;99124.75;3625685;80;25820;-87
2022/09/17 01:06:07;;;;;;;7.50;2.40;;;;;;;10.26;86.66;99117.41;3619387;80;98198;-83
2022/09/17 01:11:26;;;;;;;4.67;1.90;;;;;;;10.31;87.04;99112.85;3604479;80;98327;-84
2022/09/17 01:17:00;;;;;;;6.60;2.00;;;;;;;10.37;86.92;99115.34;3624962;80;25816;-85
2022/09/17 01:22:18;;;;;;;6.17;1.77;;;;;;;10.42;87.99;99121.02;3619374;80;98791;-85
2022/09/17 01:27:34;;;;;;;6.60;1.63;;;;;;;10.45;88.63;99111.36;3643742;79;26662;-84
2022/09/17 01:33:06;;;;;;;4.13;1.23;;;;;;;10.48;89.29;99109.77;3671766;79;98641;-85
2022/09/17 01:38:24;;;;;;;8.60;1.40;;;;;;;10.54;89.66;99111.67;3682745;79;26124;-84
2022/09/17 01:43:52;;;;;;;10.03;1.50;;;;;;;10.56;90.00;99103.78;3678369;79;98246;-84
2022/09/17 01:49:01;;;;;;;7.08;1.45;;;;;;;10.61;90.31;99113.55;3685141;79;26137;-84
2022/09/17 01:54:22;;;;;;;3.05;1.32;;;;;;;10.65;90.64;99109.59;3670382;79;98469;-83
2022/09/17 01:59:34;;;;;;;4.30;1.43;;;;;;;10.68;90.91;99115.64;3682627;79;25823;-85
2022/09/17 02:04:40;;;;;;;4.30;1.37;;;;;;;10.68;91.47;99114.88;3670976;79;98540;-85
2022/09/17 02:09:45;;;;;;;;;;;;;;;10.70;91.98;99120.74;3684017;79;25805;-85
2022/09/17 02:14:50;;;;;;;6.17;2.02;;;;;;;10.69;93.89;99118.58;3669651;79;84459;-84
2022/09/17 02:19:52;;;;;;;5.53;1.90;;;;;;;10.65;93.34;99115.09;3683083;79;26461;-84
2022/09/17 02:25:05;;;;;;;5.15;1.98;;;;;;;10.58;94.30;99108.27;3676899;79;98169;-85
2022/09/17 02:30:07;;;;;;;3.73;2.20;;;;;;;10.58;94.30;99108.27;3621537;80;25868;-84
2022/09/17 02:35:12;;;;;;;5.83;1.92;;;;;;;10.60;94.66;99114.75;3619079;80;98431;-85
2022/09/17 02:40:16;;;;;;;5.60;2.10;;;;;;;10.60;94.91;99117.50;3619953;80;26483;-84
2022/09/17 02:45:54;;;;;;;6.40;2.00;;;;;;;10.61;95.30;99119.84;3613510;80;98100;-86
2022/09/17 02:51:21;;;;;;;5.33;2.35;;;;;;;10.58;96.00;99119.27;3625578;80;25913;-85
2022/09/17 02:56:54;;;;;;;3.72;1.77;;;;;;;10.60;95.94;99114.16;3617299;80;25839;-85
2022/09/17 03:02:06;;;;;;;3.57;1.97;;;;;;;10.61;96.11;99108.05;3510406;80;98314;-85
2022/09/17 03:07:16;;;;;;;5.13;2.30;;;;;;;10.62;96.68;99106.27;3620025;80;26635;-87
2022/09/17 03:12:17;;;;;;;3.87;2.00;;;;;;;10.62;97.23;99116.48;3614045;80;98297;-87
2022/09/17 03:17:18;;;;;;;3.50;1.70;;;;;;;10.62;97.18;99116.48;3621002;80;33193;-86
2022/09/17 03:22:19;;;;;;;3.07;1.80;;;;;;;10.65;97.02;99120.60;3612870;80;98690;-87
2022/09/17 03:27:25;;;;;;;4.07;1.80;;;;;;;10.70;97.27;99117.41;3619558;80;33277;-86
2022/09/17 03:32:26;;;;;;;3.65;2.10;;;;;;;10.72;97.66;99112.84;3602803;80;98728;-87
2022/09/17 03:37:27;;;;;;;3.77;1.97;;;;;;;10.75;97.81;99123.05;3612152;80;33785;-87
2022/09/17 03:42:28;;;;;;;3.10;1.90;;;;;;;10.74;97.85;99120.12;3618036;79;98603;-87
2022/09/17 03:47:29;;;;;;;4.43;2.07;;;;;;;10.74;97.99;99126.38;3625380;80;33895;-85
2022/09/17 03:52:30;;;;;;;2.05;1.65;;;;;;;10.76;98.35;99129.53;3618949;80;98641;-86
2022/09/17 03:57:31;;;;;;;2.83;1.87;;;;;;;10.74;98.45;99126.38;3633369;80;33934;-87
2022/09/17 04:02:33;;;;;;;2.60;1.47;;;;;;;10.77;98.92;99134.42;3606729;80;98224;-85
2022/09/17 04:07:33;;;;;;;5.30;1.50;;;;;;;10.64;99.14;99114.89;3625127;80;33661;-85
2022/09/17 04:12:35;;;;;;;2.83;1.80;;;;;;;10.64;99.14;99114.89;3619553;79;98403;-87
2022/09/17 04:17:36;;;;;;;2.37;1.60;;;;;;;10.76;99.33;99128.73;3625761;80;33163;-87
2022/09/17 04:22:37;;;;;;;2.93;1.63;;;;;;;10.76;99.51;99136.41;3619578;80;98325;-85
2022/09/17 04:27:37;;;;;;;4.00;1.37;;;;;;;10.76;99.76;99140.53;3641919;79;33208;-86
2022/09/17 04:32:39;;;;;;;3.50;1.42;;;;;;;10.76;99.10;99143.87;3676982;79;98308;-85
2022/09/17 04:37:39;;;;;;;2.55;1.60;;;;;;;10.75;99.53;99140.94;3674557;79;32601;-86
2022/09/17 04:42:40;;;;;;;4.90;1.90;;;;;;;10.77;99.49;99143.47;3677379;79;98410;-85
2022/09/17 04:47:41;;;;;;;3.13;1.67;;;;;;;10.79;99.27;99144.44;3683376;79;31691;-85
2022/09/17 04:52:44;;;;;;;2.93;1.60;;;;;;;10.81;99.34;99153.05;3677288;79;98427;-85
2022/09/17 04:57:48;;;;;;;2.42;1.65;;;;;;;10.80;99.42;99162.51;3684201;79;31369;-85
2022/09/17 05:02:52;;;;;;;3.85;1.70;;;;;;;10.80;99.29;99158.38;3677209;79;98700;-84
2022/09/17 05:07:53;;;;;;;3.72;1.90;;;;;;;10.83;98.82;99163.84;3692164;79;33302;-85
2022/09/17 05:12:56;;;;;;;3.17;1.87;;;;;;;10.84;98.80;99175.64;3691296;79;98622;-85
2022/09/17 05:17:56;;;;;;;3.77;2.30;;;;;;;10.86;98.93;99173.26;3639113;80;33318;-86
2022/09/17 05:22:57;;;;;;;5.03;2.77;;;;;;;10.83;98.94;99183.11;3632771;79;98374;-85
2022/09/17 05:28:00;;;;;;;6.43;2.73;;;;;;;10.78;99.17;99188.26;3632303;80;31630;-86
2022/09/17 05:33:06;;;;;;;4.58;2.50;;;;;;;10.75;99.52;99189.86;3612372;80;98750;-86
2022/09/17 05:38:06;;;;;;;4.75;2.50;;;;;;;10.74;99.75;99193.80;3625686;80;25805;-86
2022/09/17 05:43:08;;;;;;;4.13;2.63;;;;;;;10.77;99.89;99202.63;3613776;80;98357;-86
2022/09/17 05:48:14;;;;;;;3.95;2.60;;;;;;;10.77;99.95;99208.72;3619379;80;33311;-85
2022/09/17 05:53:15;;;;;;;7.58;2.77;;;;;;;10.82;100.00;99209.07;3618883;80;98367;-85
2022/09/17 05:58:18;;;;;;;5.47;3.10;;;;;;;10.87;99.97;99214.14;3619012;80;31655;-85
2022/09/17 06:03:23;;;;;;;5.72;2.72;;;;;;;10.93;99.88;99213.88;3613640;80;98324;-85
2022/09/17 06:08:26;;;;;;;5.40;3.00;;;;;;;11.01;99.69;99218.11;3624837;80;33259;-85
2022/09/17 06:13:27;;;;;;;8.03;3.17;;;;;;;11.05;99.39;99220.23;3611108;79;98489;-85
2022/09/17 06:18:30;;;;;;;8.53;3.50;;;;;;;11.11;99.11;99234.33;3625439;80;32276;-85
2022/09/17 06:23:36;;;;;;;5.97;3.58;;;;;;;11.14;98.77;99239.83;3614275;80;98357;-85
2022/09/17 06:28:37;;;;;;;7.63;4.10;;;;;;;11.17;98.51;99245.87;3620094;80;26088;-86
2022/09/17 06:33:39;;;;;;;8.23;4.07;;;;;;;11.24;98.39;99247.17;3610709;79;98321;-86
2022/09/17 06:38:40;;;;;;;8.10;4.40;;;;;;;11.30;98.29;99252.44;3597311;80;32890;-85
2022/09/17 06:43:41;;;;;;;8.90;4.67;;;;;;;11.34;98.05;99257.30;3585671;80;98429;-85
2022/09/17 06:48:42;;;;;;;9.03;4.73;;;;;;;11.39;98.12;99253.33;3620282;79;32876;-86
2022/09/17 06:53:43;;;;;;;7.20;4.33;;;;;;;11.43;97.96;99254.05;3591609;79;98670;-85
2022/09/17 06:58:44;;;;;;;8.80;4.67;;;;;;;11.52;98.17;99248.84;3572056;80;31727;-84
2022/09/17 07:03:44;;;;;;;8.10;5.00;;;;;;;11.56;98.28;99242.70;3513089;82;98633;-85
2022/09/17 07:08:46;;;;;;;8.27;4.90;;;;;;;11.65;98.39;99249.89;3523568;82;31544;-83
2022/09/17 07:13:49;;;;;;;9.57;4.67;;;;;;;11.76;98.46;99260.19;3583310;80;98405;-84
2022/09/17 07:18:50;;;;;;;13.00;6.57;;;;;;;11.85;98.55;99248.86;3595958;80;31693;-85
2022/09/17 07:23:51;;;;;;;12.50;5.97;;;;;;;11.87;98.95;99249.22;3626770;79;98508;-86
2022/09/17 07:28:52;;;;;;;9.87;5.40;;;;;;;11.92;99.41;99245.21;3616815;80;31709;-83
2022/09/17 07:33:53;;;;;;;10.47;5.80;;;;;;;11.96;99.54;99241.81;3566230;81;98391;-85
2022/09/17 07:38:54;;;;;;;14.77;5.90;;;;;;;12.02;99.72;99240.16;3572284;81;31680;-85
2022/09/17 07:43:55;;;;;;;12.27;5.53;;;;;;;12.08;99.71;99244.80;3566194;81;98436;-87
2022/09/17 07:48:56;;;;;;;12.57;5.77;;;;;;;12.19;99.82;99246.81;3611838;80;31631;-85
2022/09/17 07:53:58;;;;;;;12.03;5.07;;;;;;;12.29;99.41;99249.23;3632474;79;98681;-86
2022/09/17 07:59:02;;;;;;;11.67;5.33;;;;;;;12.35;99.30;99258.01;3639872;80;31627;-85
2022/09/17 08:04:04;;;;;;;12.13;5.08;;;;;;;12.41;99.15;99248.64;3632531;80;98660;-85
2022/09/17 08:09:06;;;;;;;10.78;5.00;;;;;;;12.52;99.46;99244.53;3570048;81;33301;-87
2022/09/17 08:14:10;;;;;;;11.07;4.93;;;;;;;12.68;99.69;99243.88;3603340;80;98597;-87
2022/09/17 08:19:11;;;;;;;11.03;4.42;;;;;;;13.00;99.22;99231.14;3632859;80;33266;-88
2022/09/17 08:24:12;;;;;;;11.40;4.40;;;;;;;13.00;99.22;99231.14;3625063;79;98900;-85
2022/09/17 08:29:13;;;;;;;8.63;4.00;;;;;;;13.31;99.38;99246.95;3575300;81;31737;-86
2022/09/17 08:34:14;;;;;;;7.73;3.70;;;;;;;13.45;98.28;99246.66;3682772;78;98593;-86
2022/09/17 08:39:16;;;;;;;7.97;3.83;;;;;;;13.62;98.23;99252.48;3683362;79;31651;-85
2022/09/17 08:44:23;;;;;;;10.17;4.03;;;;;;;13.77;97.51;99252.34;3683335;79;98766;-84
2022/09/17 08:49:41;;;;;;;10.32;3.60;;;;;;;13.87;96.71;99250.76;3682731;79;33350;-84
2022/09/17 08:55:10;;;;;;;8.93;3.60;;;;;;;13.98;96.08;99254.08;3676904;79;98616;-85
2022/09/17 09:00:18;;;;;;;7.92;3.27;;;;;;;14.17;95.53;99255.25;3683773;78;34267;-84
2022/09/17 09:05:31;;;;;;;7.90;3.30;;;;;;;14.33;94.91;99258.09;3675332;79;98408;-84
2022/09/17 09:10:37;;;;;;;8.40;3.60;;;;;;;14.48;93.95;99264.84;3685392;79;33746;-86
2022/09/17 09:15:53;;;;;;;6.58;2.77;;;;;;;14.60;93.40;99270.48;3665762;79;98438;-86
2022/09/17 09:21:17;;;;;;;7.87;2.90;;;;;;;14.67;92.36;99266.15;3687261;79;33324;-85
2022/09/17 09:26:43;;;;;;;5.37;2.87;;;;;;;14.79;91.74;99271.62;3677918;79;33207;-86
2022/09/17 09:31:58;;;;;;;7.08;3.10;;;;;;;15.00;91.39;99264.93;3642251;79;98484;-87
2022/09/17 09:37:17;;;;;;;8.23;3.00;;;;;;;15.41;92.66;99260.13;3628664;80;33219;-85
2022/09/17 09:42:30;;;;;;;4.87;2.37;;;;;;;15.97;89.86;99275.20;3620147;80;98376;-85
2022/09/17 09:48:00;;;;;;;4.67;2.37;;;;;;;16.40;87.83;99281.84;3614766;80;33234;-85
2022/09/17 09:53:09;;;;;;;7.90;2.70;;;;;;;16.68;86.99;99275.40;3603166;80;98337;-85
2022/09/17 09:58:36;;;;;;;7.28;2.90;;;;;;;17.01;85.10;99275.94;3613029;80;33782;-85
2022/09/17 10:03:41;;;;;;;3.98;2.22;;;;;;;17.45;82.71;99280.41;3501499;83;98807;-84
2022/09/17 10:08:56;;;;;;;3.70;1.87;;;;;;;17.61;80.74;99275.42;3592392;80;33303;-85
2022/09/17 10:14:24;;;;;;;5.93;2.10;;;;;;;17.59;80.93;99281.28;3614232;80;98304;-86
2022/09/17 10:19:25;;;;;;;5.97;2.05;;;;;;;17.69;80.11;99278.14;3611431;80;33246;-88
2022/09/17 10:24:30;;;;;;;9.43;3.00;;;;;;;17.82;79.98;99282.25;3607565;80;98183;-88
2022/09/17 10:29:33;;;;;;;4.90;1.73;;;;;;;18.00;77.85;99274.81;3627641;79;26489;-89
2022/09/17 10:34:34;;;;;;;5.97;1.30;;;;;;;18.12;76.72;99277.34;3628208;79;98164;-89
2022/09/17 10:39:47;;;;;;;3.53;1.40;;;;;;;18.29;72.64;99280.85;3629944;79;28928;-86
2022/09/17 10:44:56;;;;;;;5.15;1.25;;;;;;;18.29;72.64;99280.85;3623219;80;98510;-88
2022/09/17 10:50:08;;;;;;;2.80;1.30;;;;;;;18.31;72.92;99297.12;3699835;79;33827;-85
2022/09/17 10:55:52;;;;;;;2.25;0.93;;;;;;;18.31;73.74;99288.76;3685119;79;98368;-87
2022/09/17 11:01:11;;;;;;;4.45;1.00;;;;;;;18.44;73.61;99279.11;3686738;79;33272;-84
2022/09/17 11:06:43;;;;;;;2.35;0.78;;;;;;;18.43;71.99;99284.50;3696081;79;34441;-85
2022/09/17 11:12:05;;;;;;;2.40;0.75;;;;;;;18.35;71.16;99286.63;3677928;79;98713;-86
2022/09/17 11:17:26;;;;;;;5.95;1.10;;;;;;;18.32;70.73;99277.80;3694164;79;33769;-86
2022/09/17 11:23:12;;;;;;;4.30;1.27;;;;;;;18.45;70.36;99277.08;3679988;79;98589;-85
2022/09/17 11:28:40;;;;;;;3.50;1.53;;;;;;;18.54;68.97;99282.07;3679061;79;25926;-83
2022/09/17 11:33:58;;;;;;;3.33;1.65;;;;;;;18.71;70.88;99275.66;3678083;79;98986;-85
2022/09/17 11:39:05;;;;;;;4.15;1.47;;;;;;;18.76;70.73;99275.05;3578048;81;33538;-88
2022/09/17 11:44:42;;;;;;;5.65;1.62;;;;;;;18.32;70.51;99272.23;3611780;80;98725;-85
2022/09/17 11:50:03;;;;;;;3.67;2.20;;;;;;;18.34;71.41;99276.12;3690014;79;33205;-86
2022/09/17 11:55:32;;;;;;;4.17;1.90;;;;;;;18.57;71.81;99265.06;3663869;79;98423;-85
2022/09/17 12:00:39;;;;;;;3.90;1.90;;;;;;;18.67;71.80;99273.62;3696058;79;33765;-84
2022/09/17 12:05:50;;;;;;;3.80;1.75;;;;;;;18.45;71.35;99285.44;3677102;79;98074;-87
2022/09/17 12:10:57;;;;;;;5.70;2.33;;;;;;;18.27;71.39;99283.94;3691467;79;33220;-87
2022/09/17 12:16:26;;;;;;;5.65;2.58;;;;;;;18.24;72.31;99283.44;3692610;79;97992;-86
2022/09/17 12:21:50;;;;;;;4.83;1.80;;;;;;;18.22;72.07;99270.59;3681497;79;98497;-87
2022/09/17 12:27:21;;;;;;;5.90;1.72;;;;;;;18.29;71.71;99270.31;3707414;79;33577;-87
2022/09/17 12:32:49;;;;;;;2.47;1.20;;;;;;;18.52;70.54;99272.02;3686546;79;98582;-83
2022/09/17 12:38:04;;;;;;;4.47;1.30;;;;;;;18.62;68.48;99268.64;3645732;78;33245;-83
2022/09/17 12:43:10;;;;;;;4.07;1.17;;;;;;;18.71;68.16;99247.78;3564873;81;98364;-85
2022/09/17 12:48:38;;;;;;;5.45;1.95;;;;;;;18.70;68.50;99237.23;3606714;80;33919;-90
2022/09/17 12:54:11;;;;;;;7.80;2.08;;;;;;;18.75;70.04;99236.64;3630691;80;98861;-96
2022/09/17 12:59:19;;;;;;;5.45;1.55;;;;;;;18.54;72.14;99240.28;3614812;80;33219;-88
2022/09/17 13:04:51;;;;;;;6.47;1.90;;;;;;;18.36;74.56;99230.46;3642442;80;98837;-90
2022/09/17 13:10:29;;;;;;;5.22;2.00;;;;;;;18.12;75.31;99229.40;3565555;81;33516;-87
2022/09/17 13:15:59;;;;;;;6.87;1.72;;;;;;;18.01;77.22;99258.86;3628768;79;98565;-90
2022/09/17 13:21:17;;;;;;;5.33;1.32;;;;;;;17.92;78.05;99272.75;3636472;78;33219;-90
2022/09/17 13:26:24;;;;;;;3.93;1.10;;;;;;;17.76;75.89;99284.07;3681800;79;36189;-92
2022/09/17 13:31:43;;;;;;;4.92;1.32;;;;;;;17.55;75.19;99276.48;3662073;79;98233;-89
2022/09/17 13:37:00;;;;;;;6.92;1.45;;;;;;;17.45;75.66;99269.28;3636410;80;34583;-82
2022/09/17 13:42:29;;;;;;;4.75;1.15;;;;;;;17.20;75.10;99276.27;3623957;80;98330;-88
2022/09/17 13:47:40;;;;;;;6.55;1.52;;;;;;;16.87;74.92;99262.49;3622618;80;34327;-88
2022/09/17 13:52:48;;;;;;;4.37;1.20;;;;;;;16.73;75.84;99258.17;3630868;80;98698;-85
2022/09/17 13:57:50;;;;;;;5.90;1.52;;;;;;;16.55;76.17;99249.64;3625723;80;33955;-84
2022/09/17 14:02:51;;;;;;;5.83;2.02;;;;;;;16.37;76.21;99242.45;3612027;80;98346;-83
2022/09/17 14:08:06;;;;;;;7.70;2.53;;;;;;;16.24;76.84;99233.95;3625448;81;28777;-83
2022/09/17 14:13:36;;;;;;;8.27;1.83;;;;;;;16.17;77.46;99235.53;3613956;80;98626;-86
2022/09/17 14:18:41;;;;;;;6.72;2.05;;;;;;;16.12;77.98;99243.02;3622277;81;33226;-88
2022/09/17 14:23:48;;;;;;;6.15;1.10;;;;;;;16.19;78.19;99237.28;3615080;80;98969;-86
2022/09/17 14:28:58;;;;;;;;;;;;;;;16.21;76.82;99234.83;3617021;80;26460;-87
2022/09/17 14:34:07;;;;;;;6.30;0.80;;;;;;;16.18;73.96;99244.81;3627712;80;84618;-89
2022/09/17 14:39:14;;;;;;;2.52;0.85;;;;;;;16.06;74.74;99240.03;3637717;80;33358;-86
2022/09/17 14:44:19;;;;;;;9.15;1.95;;;;;;;15.99;74.38;99229.75;3618371;79;98425;-85
2022/09/17 14:49:25;;;;;;;6.67;1.30;;;;;;;15.96;73.71;99234.81;3625124;80;31419;-86
2022/09/17 14:54:29;;;;;;;9.57;1.60;;;;;;;15.93;72.69;99238.45;3607235;79;98602;-84
2022/09/17 14:59:55;;;;;;;9.20;1.60;;;;;;;15.84;72.58;99234.94;3634691;79;33543;-85
2022/09/17 15:04:57;;;;;;;10.40;1.98;;;;;;;15.82;71.83;99238.78;3610047;80;98528;-87
2022/09/17 15:10:15;;;;;;;8.85;1.92;;;;;;;15.77;72.41;99242.69;3613980;80;33246;-85
2022/09/17 15:15:23;;;;;;;7.05;1.85;;;;;;;15.70;73.14;99237.34;3549441;82;98168;-85
2022/09/17 15:20:34;;;;;;;10.68;1.90;;;;;;;15.64;73.10;99234.95;3553323;82;33934;-85
2022/09/17 15:25:35;;;;;;;7.83;2.20;;;;;;;15.57;72.02;99229.58;3608893;80;98475;-87
2022/09/17 15:30:36;;;;;;;10.40;3.42;;;;;;;15.52;72.91;99242.00;3611126;80;33380;-88
2022/09/17 15:35:38;;;;;;;6.87;1.80;;;;;;;15.46;72.83;99239.59;3643851;80;98594;-84
2022/09/17 15:40:40;;;;;;;11.73;2.08;;;;;;;15.43;73.00;99241.84;3608076;79;33163;-86
2022/09/17 15:45:42;;;;;;;7.50;1.85;;;;;;;15.40;72.54;99237.19;3541703;82;98654;-86
2022/09/17 15:50:58;;;;;;;6.30;1.50;;;;;;;15.38;72.66;99234.06;3633367;80;32938;-86
2022/09/17 15:56:05;;;;;;;;;;;;;;;15.38;72.51;99238.22;3630051;80;98233;-87
2022/09/17 16:01:18;;;;;;;12.28;1.92;;;;;;;15.35;71.91;99247.42;3625327;80;84623;-85
2022/09/17 16:06:25;;;;;;;7.62;1.60;;;;;;;15.31;72.48;99249.48;3627508;80;33822;-85
2022/09/17 16:11:31;;;;;;;9.13;2.05;;;;;;;15.28;73.12;99246.20;3627822;80;98537;-83
2022/09/17 16:16:35;;;;;;;10.30;2.58;;;;;;;15.31;73.98;99250.10;3636744;80;25999;-85
2022/09/17 16:21:36;;;;;;;14.20;3.02;;;;;;;15.33;73.54;99247.69;3588286;80;98577;-88
2022/09/17 16:26:37;;;;;;;8.50;2.00;;;;;;;15.29;73.21;99259.44;3526680;82;25898;-87
2022/09/17 16:31:38;;;;;;;8.03;1.77;;;;;;;15.17;73.74;99247.09;3628890;80;98759;-87
2022/09/17 16:36:39;;;;;;;12.70;2.60;;;;;;;15.20;73.79;99269.00;3625105;80;31930;-88
2022/09/17 16:41:40;;;;;;;8.40;1.92;;;;;;;15.12;73.90;99274.55;3619336;80;98767;-86
2022/09/17 16:46:40;;;;;;;11.00;2.40;;;;;;;15.06;74.09;99285.39;3625827;80;32828;-87
2022/09/17 16:51:41;;;;;;;8.77;2.50;;;;;;;14.97;74.16;99294.91;3619277;80;98631;-88
2022/09/17 16:56:42;;;;;;;9.88;3.87;;;;;;;14.92;74.60;99299.58;3557415;82;25885;-87
2022/09/17 17:01:43;;;;;;;14.75;2.60;;;;;;;14.86;75.41;99304.67;3613923;80;98382;-87
2022/09/17 17:06:44;;;;;;;13.35;2.52;;;;;;;14.75;74.63;99307.71;3625617;80;31601;-89
2022/09/17 17:11:45;;;;;;;29.20;11.43;;;;;;;14.67;74.84;99319.39;3613842;79;98491;-89
2022/09/17 17:16:46;;;;;;;9.93;2.47;;;;;;;14.60;74.99;99332.78;3623230;80;25981;-89
2022/09/17 17:21:50;;;;;;;11.08;3.27;;;;;;;14.53;75.15;99339.08;3628553;79;98316;-86
2022/09/17 17:26:50;;;;;;;10.50;2.60;;;;;;;14.43;75.24;99345.03;3609540;80;31728;-86
2022/09/17 17:31:51;;;;;;;11.10;3.20;;;;;;;14.41;75.91;99346.08;3621331;79;99256;-87
2022/09/17 17:36:56;;;;;;;8.73;3.07;;;;;;;14.41;76.84;99356.36;3599011;81;26197;-87
2022/09/17 17:41:57;;;;;;;10.60;2.90;;;;;;;14.30;77.81;99357.18;3612380;80;98712;-88
2022/09/17 17:46:57;;;;;;;6.33;2.00;;;;;;;14.24;78.48;99355.53;3623738;79;26888;-86
2022/09/17 17:51:59;;;;;;;6.70;2.20;;;;;;;14.21;78.64;99363.30;3620158;79;98468;-87
2022/09/17 17:57:00;;;;;;;8.10;1.93;;;;;;;14.12;78.79;99357.51;3589436;81;25817;-87
2022/09/17 18:02:01;;;;;;;7.85;2.67;;;;;;;14.07;79.19;99352.47;3591963;81;98364;-87
2022/09/17 18:07:02;;;;;;;17.60;5.30;;;;;;;14.03;79.75;99354.55;3620979;80;27219;-87
2022/09/17 18:12:03;;;;;;;11.07;5.40;;;;;;;13.98;80.04;99355.05;3613836;80;98554;-86
2022/09/17 18:17:04;;;;;;;14.13;7.23;;;;;;;13.87;80.41;99355.86;3618216;79;28456;-87
2022/09/17 18:22:05;;;;;;;12.80;3.60;;;;;;;13.83;80.85;99351.58;3586289;81;98896;-86
2022/09/17 18:27:06;;;;;;;10.17;2.57;;;;;;;13.79;80.95;99346.73;3658877;79;32046;-86
2022/09/17 18:32:07;;;;;;;7.33;2.07;;;;;;;13.75;81.46;99348.78;3649890;79;98515;-86
2022/09/17 18:37:08;;;;;;;7.00;2.02;;;;;;;13.67;81.70;99339.83;3627122;80;34932;-86
2022/09/17 18:42:09;;;;;;;8.08;2.25;;;;;;;13.61;81.95;99340.73;3614522;80;98565;-87
2022/09/17 18:47:10;;;;;;;8.27;3.50;;;;;;;13.55;82.33;99344.61;3627211;80;31681;-86
2022/09/17 18:52:11;;;;;;;10.87;3.10;;;;;;;13.48;82.29;99340.59;3622296;80;98404;-86
2022/09/17 18:57:12;;;;;;;10.87;2.67;;;;;;;13.43;82.48;99356.87;3624673;80;29055;-86
2022/09/17 19:02:13;;;;;;;11.17;3.10;;;;;;;13.35;82.90;99357.59;3611647;80;98544;-86
2022/09/17 19:07:14;;;;;;;9.17;2.23;;;;;;;13.23;82.83;99349.11;3624366;80;27322;-85
2022/09/17 19:12:15;;;;;;;11.95;2.95;;;;;;;13.10;82.53;99349.53;3613076;80;98423;-86
2022/09/17 19:17:16;;;;;;;10.27;3.27;;;;;;;12.98;83.03;99356.42;3619752;79;26359;-86
2022/09/17 19:22:17;;;;;;;9.85;4.08;;;;;;;12.94;83.76;99349.38;3612496;80;98432;-86
2022/09/17 19:27:18;;;;;;;7.37;3.00;;;;;;;12.90;84.11;99356.33;3616610;80;32499;-86
2022/09/17 19:32:19;;;;;;;7.70;2.60;;;;;;;12.84;84.26;99350.31;3611381;79;98374;-85
2022/09/17 19:37:46;;;;;;;9.98;3.30;;;;;;;12.78;84.52;99356.92;3625944;80;32533;-86
2022/09/17 19:42:56;;;;;;;9.40;2.85;;;;;;;12.70;84.36;99352.68;3607857;80;98340;-86
2022/09/17 19:48:04;;;;;;;10.10;3.05;;;;;;;12.62;84.56;99360.90;3615649;80;33064;-86
2022/09/17 19:53:06;;;;;;;9.35;2.70;;;;;;;12.55;84.62;99354.69;3599563;80;98516;-86
2022/09/17 19:58:07;;;;;;;9.75;3.20;;;;;;;12.46;84.95;99350.27;3616807;80;32465;-84
2022/09/17 20:03:09;;;;;;;10.50;3.00;;;;;;;12.40;84.84;99350.55;3609819;80;98767;-85
2022/09/17 20:08:10;;;;;;;7.63;2.47;;;;;;;12.11;84.88;99316.27;3617222;80;27749;-86
2022/09/17 20:13:11;;;;;;;8.77;2.93;;;;;;;12.24;85.06;99352.55;3608656;80;98824;-85
2022/09/17 20:18:12;;;;;;;11.23;3.70;;;;;;;12.18;85.32;99352.03;3617248;80;25833;-86
2022/09/17 20:23:12;;;;;;;9.47;2.87;;;;;;;12.11;85.21;99368.06;3611105;80;99047;-84
2022/09/17 20:28:13;;;;;;;8.07;2.63;;;;;;;12.00;85.14;99366.64;3620632;80;25878;-86
2022/09/17 20:33:16;;;;;;;10.53;2.67;;;;;;;11.92;85.22;99358.25;3608356;80;98566;-83
2022/09/17 20:38:17;;;;;;;11.12;2.52;;;;;;;11.81;85.18;99358.38;3624929;80;25844;-84
2022/09/17 20:43:18;;;;;;;12.53;3.83;;;;;;;11.70;85.31;99363.81;3612315;80;98837;-85
2022/09/17 20:48:19;;;;;;;7.47;2.43;;;;;;;11.59;85.36;99365.31;3625652;80;26209;-84
2022/09/17 20:53:20;;;;;;;10.43;3.20;;;;;;;11.55;85.82;99376.16;3618806;80;98460;-84
2022/09/17 20:58:23;;;;;;;14.20;3.07;;;;;;;11.49;85.74;99380.52;3620266;80;25894;-85
2022/09/17 21:03:24;;;;;;;10.87;3.40;;;;;;;11.42;85.75;99397.92;3609831;80;98542;-83
2022/09/17 21:08:27;;;;;;;11.17;3.80;;;;;;;11.36;86.00;99387.73;3617393;80;26444;-85
2022/09/17 21:13:30;;;;;;;7.33;2.62;;;;;;;11.22;85.78;99397.48;3627433;80;98526;-84
2022/09/17 21:18:31;;;;;;;10.93;3.37;;;;;;;11.08;85.93;99393.48;3617265;80;28675;-85
2022/09/17 21:23:36;;;;;;;9.80;3.13;;;;;;;11.02;86.02;99396.48;3621600;80;98782;-84
2022/09/17 21:28:37;;;;;;;9.48;3.52;;;;;;;10.93;85.73;99392.00;3632763;80;30612;-85
2022/09/17 21:33:40;;;;;;;6.60;2.60;;;;;;;10.82;86.19;99389.34;3633868;79;98464;-84
2022/09/17 21:38:41;;;;;;;7.50;2.37;;;;;;;10.81;86.08;99383.65;3687825;79;30625;-84
2022/09/17 21:43:43;;;;;;;7.17;2.72;;;;;;;10.73;86.23;99377.19;3689020;79;98295;-85
2022/09/17 21:48:48;;;;;;;7.50;2.07;;;;;;;10.61;86.26;99381.20;3645917;78;29611;-85
2022/09/17 21:53:55;;;;;;;9.70;2.87;;;;;;;10.53;86.99;99385.78;3632387;80;98371;-84
2022/09/17 21:59:01;;;;;;;7.78;2.20;;;;;;;10.42;86.64;99395.45;3632402;80;33307;-84
2022/09/17 22:04:02;;;;;;;9.23;2.17;;;;;;;10.34;86.95;99393.13;3600684;80;98673;-83
2022/09/17 22:09:05;;;;;;;7.30;2.23;;;;;;;10.30;87.09;99393.15;3572792;81;25953;-83
2022/09/17 22:14:18;;;;;;;6.00;1.80;;;;;;;10.21;86.79;99390.64;3620389;80;98636;-84
2022/09/17 22:19:21;;;;;;;7.75;2.33;;;;;;;10.21;88.18;99383.20;3638473;80;32591;-83
2022/09/17 22:24:23;;;;;;;9.28;2.10;;;;;;;10.18;87.34;99381.81;3636688;80;98405;-85
2022/09/17 22:29:25;;;;;;;9.48;2.55;;;;;;;10.13;87.86;99390.47;3638604;80;31226;-86
2022/09/17 22:34:28;;;;;;;11.60;1.95;;;;;;;9.99;87.29;99382.26;3627501;80;98357;-84
2022/09/17 22:39:29;;;;;;;6.83;1.92;;;;;;;9.94;87.88;99385.41;3618062;80;32442;-84
2022/09/17 22:44:30;;;;;;;5.93;2.37;;;;;;;9.86;87.97;99386.02;3612385;81;98039;-84
2022/09/17 22:49:30;;;;;;;7.73;2.10;;;;;;;9.82;88.30;99381.11;3611347;81;26542;-84
2022/09/17 22:54:32;;;;;;;8.13;1.87;;;;;;;9.77;88.50;99372.52;3608786;80;97987;-84
2022/09/17 22:59:34;;;;;;;6.20;1.77;;;;;;;9.79;89.09;99373.68;3606835;81;25796;-84
2022/09/17 23:04:34;;;;;;;6.60;1.90;;;;;;;9.76;88.55;99369.58;3612004;80;97955;-86
2022/09/17 23:09:36;;;;;;;7.17;1.80;;;;;;;9.60;87.71;99359.61;3626541;80;25957;-84
2022/09/17 23:14:37;;;;;;;7.00;2.10;;;;;;;9.46;87.86;99360.99;3612412;80;98315;-84
2022/09/17 23:19:38;;;;;;;8.93;1.80;;;;;;;9.49;89.23;99356.09;3618721;80;25949;-85
2022/09/17 23:24:39;;;;;;;5.13;1.50;;;;;;;9.37;87.93;99347.67;3615801;80;98063;-83
2022/09/17 23:29:40;;;;;;;5.90;1.63;;;;;;;9.27;88.10;99344.95;3618972;80;25978;-82
2022/09/17 23:34:41;;;;;;;8.23;1.77;;;;;;;9.14;88.06;99347.31;3618297;80;97844;-84
2022/09/17 23:39:42;;;;;;;3.33;1.30;;;;;;;9.13;88.66;99345.75;3646926;80;26032;-84
2022/09/17 23:44:42;;;;;;;4.80;1.32;;;;;;;9.11;88.50;99351.43;3659253;79;97992;-84
2022/09/17 23:49:43;;;;;;;2.13;1.03;;;;;;;9.09;88.74;99340.84;3665326;79;33170;-84
2022/09/17 23:54:44;;;;;;;11.60;2.53;;;;;;;9.13;90.02;99346.33;3655137;79;97852;-84
2022/09/17 23:59:45;;;;;;;6.30;1.33;;;;;;;9.12;89.02;99354.37;3656843;79;33171;-84
